createdAt,value
2022-09-07T00:02:09.496Z,16.940308
2022-09-07T00:05:34.785Z,16.879883
2022-09-07T00:09:00.080Z,16.809387
2022-09-07T00:12:25.331Z,16.728821
2022-09-07T00:15:50.664Z,16.678467
2022-09-07T00:19:15.839Z,16.638184
2022-09-07T00:22:41.132Z,16.557617
2022-09-07T00:26:06.387Z,16.527405
2022-09-07T00:29:31.615Z,16.517334
2022-09-07T00:32:56.904Z,16.517334
2022-09-07T00:36:22.154Z,16.487122
2022-09-07T00:39:47.443Z,16.487122
2022-09-07T00:43:12.642Z,16.406555
2022-09-07T00:46:38.098Z,16.406555
2022-09-07T00:50:03.150Z,16.376343
2022-09-07T00:53:28.429Z,16.406555
2022-09-07T00:56:53.692Z,16.34613
2022-09-07T01:00:18.964Z,16.325989
2022-09-07T01:03:44.214Z,16.295776
2022-09-07T01:07:09.486Z,16.295776
2022-09-07T01:10:34.779Z,16.245422
2022-09-07T01:14:00.075Z,16.225281
2022-09-07T01:17:25.348Z,16.08429
2022-09-07T01:20:50.671Z,16.054077
2022-09-07T01:24:15.881Z,16.044006
2022-09-07T01:27:41.132Z,16.023865
2022-09-07T01:31:06.492Z,15.943298
2022-09-07T01:34:31.716Z,15.923157
2022-09-07T01:37:57.348Z,15.892944
2022-09-07T01:41:22.250Z,15.872803
2022-09-07T01:44:47.501Z,15.83252
2022-09-07T01:48:12.771Z,15.822449
2022-09-07T01:51:38.006Z,15.822449
2022-09-07T01:55:03.291Z,15.83252
2022-09-07T01:58:28.575Z,15.862732
2022-09-07T02:01:53.901Z,15.872803
2022-09-07T02:05:19.041Z,15.892944
2022-09-07T02:08:44.295Z,15.892944
2022-09-07T02:12:09.533Z,15.923157
2022-09-07T02:15:34.842Z,15.872803
2022-09-07T02:19:00.076Z,15.84259
2022-09-07T02:22:25.299Z,15.822449
2022-09-07T02:25:50.566Z,15.762024
2022-09-07T02:29:15.861Z,15.782166
2022-09-07T02:32:41.112Z,15.741882
2022-09-07T02:36:06.350Z,15.802307
2022-09-07T02:39:31.654Z,15.822449
2022-09-07T02:42:56.904Z,15.762024
2022-09-07T02:46:22.250Z,15.782166
2022-09-07T02:49:47.475Z,15.802307
2022-09-07T02:53:12.719Z,15.83252
2022-09-07T02:56:37.980Z,15.822449
2022-09-07T03:00:03.280Z,15.802307
2022-09-07T03:03:28.530Z,15.84259
2022-09-07T03:06:53.820Z,15.822449
2022-09-07T03:10:19.111Z,15.762024
2022-09-07T03:13:44.362Z,15.782166
2022-09-07T03:17:09.655Z,15.762024
2022-09-07T03:20:34.938Z,15.782166
2022-09-07T03:24:00.203Z,15.802307
2022-09-07T03:27:25.469Z,15.83252
2022-09-07T03:30:50.769Z,15.84259
2022-09-07T03:34:15.973Z,15.862732
2022-09-07T03:37:41.266Z,15.862732
2022-09-07T03:41:06.562Z,15.872803
2022-09-07T03:44:31.857Z,15.83252
2022-09-07T03:47:57.155Z,15.83252
2022-09-07T03:51:22.385Z,15.822449
2022-09-07T03:54:47.655Z,15.84259
2022-09-07T03:58:12.920Z,15.84259
2022-09-07T04:01:38.305Z,15.782166
2022-09-07T04:05:03.460Z,15.721741
2022-09-07T04:08:28.750Z,15.691528
2022-09-07T04:11:54.007Z,15.651245
2022-09-07T04:15:19.253Z,15.621033
2022-09-07T04:18:44.518Z,15.641174
2022-09-07T04:22:09.807Z,15.621033
2022-09-07T04:25:35.082Z,15.651245
2022-09-07T04:29:00.353Z,15.641174
2022-09-07T04:32:25.625Z,15.651245
2022-09-07T04:35:50.927Z,15.641174
2022-09-07T04:39:16.173Z,15.621033
2022-09-07T04:42:41.432Z,15.621033
2022-09-07T04:46:06.767Z,15.570679
2022-09-07T04:49:31.921Z,15.560608
2022-09-07T04:52:57.158Z,15.560608
2022-09-07T04:56:22.380Z,15.540466
2022-09-07T04:59:47.614Z,15.530396
2022-09-07T05:03:12.899Z,15.490112
2022-09-07T05:06:38.180Z,15.439758
2022-09-07T05:10:03.534Z,15.439758
2022-09-07T05:13:28.791Z,15.490112
2022-09-07T05:16:54.063Z,15.560608
2022-09-07T05:20:20.337Z,15.671387
2022-09-07T05:23:44.516Z,15.741882
2022-09-07T05:27:09.750Z,15.802307
2022-09-07T05:37:25.519Z,16.013794
2022-09-07T05:40:50.765Z,16.074219
2022-09-07T05:47:41.255Z,16.114502
2022-09-07T05:51:06.494Z,16.124573
2022-09-07T05:54:31.736Z,16.154785
2022-09-07T05:57:57.004Z,16.225281
2022-09-07T06:01:22.258Z,16.275635
2022-09-07T06:04:47.501Z,16.34613
2022-09-07T06:08:12.810Z,16.376343
2022-09-07T06:11:38.094Z,16.446838
2022-09-07T06:15:03.383Z,16.487122
2022-09-07T06:18:28.649Z,16.517334
2022-09-07T06:21:53.921Z,16.567688
2022-09-07T06:25:19.172Z,16.607971
2022-09-07T06:28:46.701Z,16.658325
2022-09-07T06:35:34.976Z,16.728821
2022-09-07T06:39:00.250Z,16.678467
2022-09-07T06:42:25.534Z,16.748962
2022-09-07T06:45:50.934Z,16.748962
2022-09-07T06:49:16.067Z,16.809387
2022-09-07T06:56:06.613Z,16.930237
2022-09-07T06:59:31.928Z,17.000732
2022-09-07T07:02:57.219Z,17.151794
2022-09-07T07:06:22.451Z,17.302856
2022-09-07T07:09:47.705Z,17.443848
2022-09-07T07:13:12.965Z,17.564697
2022-09-07T07:16:36.273Z,17.695618
2022-09-07T07:20:01.474Z,17.836609
2022-09-07T07:23:26.778Z,17.997742
2022-09-07T07:26:52.068Z,18.108521
2022-09-07T07:30:17.352Z,18.259583
2022-09-07T07:33:42.722Z,18.360291
2022-09-07T07:37:07.890Z,18.511353
2022-09-07T07:40:34.148Z,18.60199
2022-09-07T07:43:58.435Z,18.692627
2022-09-07T07:47:23.695Z,18.763123
2022-09-07T07:50:49.003Z,18.85376
2022-09-07T07:54:14.246Z,18.873901
2022-09-07T07:57:39.495Z,18.924255
2022-09-07T08:01:04.831Z,18.98468
2022-09-07T08:04:30.043Z,19.035034
2022-09-07T08:07:55.332Z,19.055176
2022-09-07T08:11:20.576Z,19.135742
2022-09-07T08:14:45.841Z,19.216309
2022-09-07T08:18:11.131Z,19.256592
2022-09-07T08:21:36.413Z,19.286804
2022-09-07T08:25:01.798Z,19.306946
2022-09-07T08:28:26.940Z,19.317017
2022-09-07T08:31:52.207Z,19.3573
2022-09-07T08:35:17.536Z,19.327087
2022-09-07T08:38:42.822Z,19.367371
2022-09-07T08:42:08.094Z,19.437866
2022-09-07T08:45:33.328Z,19.468079
2022-09-07T08:48:58.628Z,19.538574
2022-09-07T08:52:23.912Z,19.588928
2022-09-07T08:55:49.177Z,19.659424
2022-09-07T08:59:14.452Z,19.73999
2022-09-07T09:02:43.739Z,19.810486
2022-09-07T09:06:04.991Z,19.830627
2022-09-07T09:09:30.181Z,19.911194
2022-09-07T09:12:55.430Z,19.961548
2022-09-07T09:16:20.761Z,20.011902
2022-09-07T09:19:45.953Z,20.052185
2022-09-07T09:23:11.222Z,20.102539
2022-09-07T09:26:36.489Z,20.183105
2022-09-07T09:30:01.763Z,20.132751
2022-09-07T09:33:27.055Z,20.11261
2022-09-07T09:36:52.255Z,20.062256
2022-09-07T09:40:17.614Z,20.082397
2022-09-07T09:43:42.851Z,20.183105
2022-09-07T09:53:58.683Z,20.757141
2022-09-07T09:57:23.843Z,21.008911
2022-09-07T10:04:17.528Z,21.421814
2022-09-07T10:07:39.437Z,21.62323
2022-09-07T10:11:04.621Z,21.693726
2022-09-07T10:14:29.886Z,21.794434
2022-09-07T10:17:55.109Z,21.774292
2022-09-07T10:21:20.308Z,21.673584
2022-09-07T10:24:45.558Z,21.542664
2022-09-07T10:28:10.759Z,21.50238
2022-09-07T10:31:36.047Z,21.431885
2022-09-07T10:35:01.230Z,21.37146
2022-09-07T10:38:26.560Z,21.290894
2022-09-07T10:41:51.796Z,21.311035
2022-09-07T10:45:16.929Z,21.290894
2022-09-07T10:48:42.131Z,21.311035
2022-09-07T10:52:07.315Z,21.37146
2022-09-07T10:55:32.477Z,21.49231
2022-09-07T10:59:05.114Z,21.562805
2022-09-07T11:02:23.192Z,21.643372
2022-09-07T11:05:48.330Z,21.673584
2022-09-07T11:09:17.800Z,21.774292
2022-09-07T11:12:38.815Z,21.824646
2022-09-07T11:16:04.082Z,21.915283
2022-09-07T11:19:37.597Z,21.935425
2022-09-07T11:22:54.344Z,22.046204
2022-09-07T11:26:19.537Z,22.308044
2022-09-07T11:29:44.739Z,22.539673
2022-09-07T11:33:09.972Z,22.731018
2022-09-07T11:36:35.157Z,22.791443
2022-09-07T11:40:00.459Z,22.821655
2022-09-07T11:43:25.618Z,22.952576
2022-09-07T11:46:50.892Z,23.043213
2022-09-07T11:50:16.104Z,23.153992
2022-09-07T11:53:41.301Z,23.2547
2022-09-07T11:57:06.555Z,23.38562
2022-09-07T12:00:31.799Z,23.375549
2022-09-07T12:03:57.194Z,23.395691
2022-09-07T12:07:22.271Z,23.425903
2022-09-07T12:10:47.503Z,23.476257
2022-09-07T12:14:12.719Z,23.496399
2022-09-07T12:17:37.938Z,23.466187
2022-09-07T12:21:03.169Z,23.395691
2022-09-07T12:24:28.467Z,23.425903
2022-09-07T12:27:53.762Z,23.466187
2022-09-07T12:31:19.136Z,23.50647
2022-09-07T12:34:44.282Z,23.526611
2022-09-07T12:38:09.580Z,23.536682
2022-09-07T12:41:34.868Z,23.50647
2022-09-07T12:45:00.104Z,23.526611
2022-09-07T12:48:25.307Z,23.496399
2022-09-07T12:52:15.090Z,23.496399
2022-09-07T12:55:27.790Z,23.476257
2022-09-07T12:58:41.042Z,23.476257
2022-09-07T13:02:06.343Z,23.456116
2022-09-07T13:05:31.497Z,23.476257
2022-09-07T13:08:56.725Z,23.466187
2022-09-07T13:15:48.568Z,23.456116
2022-09-07T13:19:12.567Z,23.425903
2022-09-07T13:22:37.870Z,23.415833
2022-09-07T13:26:03.069Z,23.466187
2022-09-07T13:29:28.326Z,23.476257
2022-09-07T13:33:09.162Z,23.50647
2022-09-07T13:36:18.765Z,23.50647
2022-09-07T13:39:44.036Z,23.476257
2022-09-07T13:43:09.204Z,23.415833
2022-09-07T13:46:34.532Z,23.415833
2022-09-07T13:49:59.835Z,23.38562
2022-09-07T13:53:24.890Z,23.415833
2022-09-07T13:56:50.118Z,23.395691
2022-09-07T14:00:15.347Z,23.415833
2022-09-07T14:03:40.582Z,23.415833
2022-09-07T14:07:05.826Z,23.415833
2022-09-07T14:10:31.002Z,23.415833
2022-09-07T14:13:56.237Z,23.456116
2022-09-07T14:17:21.439Z,23.456116
2022-09-07T14:20:46.674Z,23.375549
2022-09-07T14:24:11.886Z,23.355408
2022-09-07T14:27:37.041Z,23.325195
2022-09-07T15:07:00.751Z,23.013
2022-09-07T15:09:35.358Z,22.972717
2022-09-07T15:13:01.269Z,22.912292
2022-09-07T15:16:25.793Z,22.831726
2022-09-07T15:19:50.998Z,22.771301
2022-09-07T15:23:16.276Z,22.791443
2022-09-07T15:30:07.226Z,22.831726
2022-09-07T15:33:32.407Z,22.851868
2022-09-07T15:36:57.890Z,22.831726
2022-09-07T15:40:22.959Z,22.861938
2022-09-07T15:43:48.151Z,22.861938
2022-09-07T15:50:38.577Z,22.791443
2022-09-07T15:54:11.321Z,22.771301
2022-09-07T16:01:51.316Z,22.680664
2022-09-07T16:04:19.662Z,22.640381
2022-09-07T16:11:12.604Z,22.539673
2022-09-07T16:14:35.447Z,22.519531
2022-09-07T16:18:03.559Z,22.449036
2022-09-07T16:21:28.807Z,22.398682
2022-09-07T16:24:54.040Z,22.358398
2022-09-07T16:28:19.215Z,22.358398
2022-09-07T16:35:09.715Z,22.308044
2022-09-07T16:38:50.359Z,22.24762
2022-09-07T16:42:00.412Z,22.207336
2022-09-07T16:48:50.691Z,22.116699
2022-09-07T16:52:15.904Z,22.066345
2022-09-07T16:55:41.169Z,22.026062
2022-09-07T16:59:06.402Z,21.975708
2022-09-07T17:02:31.655Z,21.935425
2022-09-07T17:05:56.927Z,21.844788
2022-09-07T17:09:22.141Z,21.824646
2022-09-07T17:12:47.400Z,21.774292
2022-09-07T17:16:12.687Z,21.723938
2022-09-07T17:19:37.885Z,21.643372
2022-09-07T17:23:03.160Z,21.542664
2022-09-07T17:26:28.402Z,21.441956
2022-09-07T17:29:53.779Z,21.37146
2022-09-07T17:33:18.887Z,21.280823
2022-09-07T17:36:44.083Z,21.159973
2022-09-07T17:40:09.375Z,21.008911
2022-09-07T17:43:45.471Z,20.908203
2022-09-07T17:46:59.824Z,20.797424
2022-09-07T17:50:24.996Z,20.686646
2022-09-07T17:53:50.234Z,20.585938
2022-09-07T17:57:15.502Z,20.4953
2022-09-07T18:00:40.801Z,20.414734
2022-09-07T18:04:05.952Z,20.394592
2022-09-07T18:07:31.206Z,20.36438
2022-09-07T18:14:21.736Z,20.384521
2022-09-07T18:17:46.947Z,20.394592
2022-09-07T18:21:12.204Z,20.424805
2022-09-07T18:24:37.423Z,20.394592
2022-09-07T18:31:27.979Z,20.162964
2022-09-07T18:34:53.104Z,20.052185
2022-09-07T18:38:18.369Z,20.062256
2022-09-07T18:41:43.625Z,20.052185
2022-09-07T18:48:34.152Z,20.021973
2022-09-07T18:55:24.629Z,19.951477
2022-09-07T18:58:49.851Z,19.780273
2022-09-07T19:02:15.181Z,19.679565
2022-09-07T19:05:55.663Z,19.629211
2022-09-07T19:09:05.591Z,19.498291
2022-09-07T19:12:30.832Z,19.407654
2022-09-07T19:15:56.153Z,19.3573
2022-09-07T19:19:21.345Z,19.256592
2022-09-07T19:22:46.639Z,19.206238
2022-09-07T19:26:11.879Z,19.135742
2022-09-07T19:29:37.155Z,19.135742
2022-09-07T19:33:04.452Z,19.10553
2022-09-07T19:36:27.657Z,19.075317
2022-09-07T19:39:52.993Z,19.065247
2022-09-07T19:43:18.167Z,18.994751
2022-09-07T19:46:43.482Z,18.883972
2022-09-07T19:50:08.708Z,18.763123
2022-09-07T19:53:34.087Z,18.662415
2022-09-07T19:57:00.081Z,18.581848
2022-09-07T20:00:25.311Z,18.511353
2022-09-07T20:03:50.646Z,18.450928
2022-09-07T20:07:15.886Z,18.360291
2022-09-07T20:10:41.133Z,18.299866
2022-09-07T20:14:06.396Z,18.259583
2022-09-07T20:17:35.027Z,18.22937
2022-09-07T20:20:56.860Z,18.199158
2022-09-07T20:24:22.141Z,18.168945
2022-09-07T20:27:47.358Z,18.138733
2022-09-07T20:31:12.631Z,18.118591
2022-09-07T20:34:37.834Z,18.027954
2022-09-07T20:38:03.037Z,17.957458
2022-09-07T20:41:28.289Z,17.967529
2022-09-07T20:44:53.513Z,17.947388
2022-09-07T20:48:18.863Z,17.927246
2022-09-07T20:51:44.036Z,17.866821
2022-09-07T20:55:09.269Z,17.786255
2022-09-07T20:58:34.499Z,17.766113
2022-09-07T21:01:59.780Z,17.786255
2022-09-07T21:05:25.023Z,17.786255
2022-09-07T21:08:50.216Z,17.816467
2022-09-07T21:12:15.468Z,17.816467
2022-09-07T21:15:40.716Z,17.766113
2022-09-07T21:19:05.970Z,17.745972
2022-09-07T21:22:31.247Z,17.735901
2022-09-07T21:25:56.469Z,17.766113
2022-09-07T21:29:21.724Z,17.766113
2022-09-07T21:32:46.983Z,17.715759
2022-09-07T21:36:12.246Z,17.836609
2022-09-07T21:39:37.598Z,17.886963
2022-09-07T21:43:02.738Z,17.967529
2022-09-07T21:46:28.063Z,17.897034
2022-09-07T21:49:53.266Z,17.886963
2022-09-07T21:53:18.511Z,17.836609
2022-09-07T21:56:46.625Z,17.735901
2022-09-07T22:00:08.988Z,17.705688
2022-09-07T22:03:34.418Z,17.745972
2022-09-07T22:06:59.541Z,17.735901
2022-09-07T22:10:24.831Z,17.655334
2022-09-07T22:13:50.153Z,17.584839
2022-09-07T22:17:15.401Z,17.524414
2022-09-07T22:20:40.704Z,17.514343
2022-09-07T22:24:06.010Z,17.524414
2022-09-07T22:27:31.300Z,17.443848
2022-09-07T22:30:56.632Z,17.363281
2022-09-07T22:34:21.854Z,17.22229
2022-09-07T22:37:47.126Z,17.182007
2022-09-07T22:41:12.423Z,17.151794
2022-09-07T22:44:37.716Z,17.111511
2022-09-07T22:48:03.033Z,17.061157
2022-09-07T22:51:28.313Z,17.030945
2022-09-07T22:54:53.608Z,17.000732
2022-09-07T22:58:18.895Z,16.960449
2022-09-07T23:01:44.186Z,16.940308
2022-09-07T23:05:09.591Z,16.930237
2022-09-07T23:08:34.770Z,16.930237
2022-09-07T23:12:00.044Z,16.910095
2022-09-07T23:15:25.356Z,16.859741
2022-09-07T23:18:50.647Z,16.879883
2022-09-07T23:22:15.956Z,16.930237
2022-09-07T23:25:41.216Z,16.980591
2022-09-07T23:29:06.512Z,16.960449
2022-09-07T23:32:31.790Z,16.960449
2022-09-07T23:35:57.071Z,16.980591
2022-09-07T23:39:22.380Z,17.071228
2022-09-07T23:42:47.641Z,17.151794
2022-09-07T23:46:12.960Z,17.182007
2022-09-07T23:49:38.235Z,17.212219
2022-09-07T23:53:03.530Z,17.212219
2022-09-07T23:56:28.825Z,17.212219
2022-09-07T23:59:54.083Z,17.252502
